Time;durP1;ratioP1;P1;durP2;ratioP2;P2;SDS_P1;SDS_P2;PMS_P1;PMS_P2;Temp;Humidity;BMP_temperature;BMP_pressure;BME280_temperature;BME280_humidity;BME280_pressure;Samples;Min_cycle;Max_cycle;Signal;HPM_P1;HPM_P2
2022/01/31 00:01:06;;;;;;;6.20;3.13;;;;;;;15.65;54.93;102065.97;5035236;28;20029;-69
2022/01/31 00:03:34;;;;;;;6.28;3.78;;;;;;;15.88;53.88;102054.28;5035043;28;20025;-68
2022/01/31 00:06:02;;;;;;;10.15;4.72;;;;;;;15.89;54.53;102055.16;5035592;28;20137;-69
2022/01/31 00:08:28;;;;;;;9.45;3.47;;;;;;;15.93;53.98;102055.78;5035774;28;20033;-68
2022/01/31 00:10:55;;;;;;;6.60;3.60;;;;;;;15.85;53.76;102067.19;5033940;28;20021;-68
2022/01/31 00:13:27;;;;;;;10.40;4.32;;;;;;;16.03;53.40;102070.25;5034054;28;20424;-68
2022/01/31 00:15:56;;;;;;;8.57;3.67;;;;;;;16.03;52.83;102063.00;5033481;28;20029;-68
2022/01/31 00:18:22;;;;;;;5.57;3.40;;;;;;;15.85;53.53;102075.28;5035224;28;20021;-68
2022/01/31 00:20:48;;;;;;;5.63;3.10;;;;;;;15.82;53.93;102070.09;5032715;28;20036;-68
2022/01/31 00:23:15;;;;;;;8.68;3.90;;;;;;;15.98;53.43;102054.41;5034162;28;20035;-68
2022/01/31 00:25:41;;;;;;;5.90;3.45;;;;;;;15.26;56.77;102066.22;5035808;28;20037;-71
2022/01/31 00:28:07;;;;;;;5.60;2.97;;;;;;;16.10;53.41;102074.19;5035760;28;20479;-71
2022/01/31 00:30:34;;;;;;;8.68;3.58;;;;;;;15.82;52.98;102048.50;5037125;28;20132;-71
2022/01/31 00:33:00;;;;;;;5.75;3.30;;;;;;;16.11;53.24;102061.56;5035962;28;20033;-71
2022/01/31 00:35:26;;;;;;;6.22;3.45;;;;;;;15.97;53.37;102052.69;5036421;28;20053;-71
2022/01/31 00:37:53;;;;;;;8.95;4.32;;;;;;;16.28;52.99;102071.03;5035211;28;20115;-71
2022/01/31 00:40:20;;;;;;;8.38;3.90;;;;;;;16.09;53.54;102064.38;5036566;28;20083;-71
2022/01/31 00:42:46;;;;;;;7.75;3.75;;;;;;;16.12;53.46;102069.53;5038643;28;20048;-71
2022/01/31 00:45:25;;;;;;;9.55;4.50;;;;;;;16.29;53.27;102062.78;5046230;28;20044;-72
2022/01/31 00:48:00;;;;;;;8.93;3.90;;;;;;;16.09;54.36;102060.81;5049883;28;20005;-72
2022/01/31 00:50:28;;;;;;;7.20;3.45;;;;;;;15.93;53.73;102066.56;5048530;28;20120;-71
2022/01/31 00:52:55;;;;;;;8.55;4.53;;;;;;;16.09;53.71;102061.69;5036408;28;20036;-71
2022/01/31 00:55:22;;;;;;;7.32;3.83;;;;;;;15.83;54.15;102063.72;5037043;28;20037;-71
2022/01/31 00:57:48;;;;;;;7.45;3.88;;;;;;;15.49;56.09;102074.41;5036659;28;20029;-71
2022/01/31 01:00:16;;;;;;;8.52;3.58;;;;;;;15.25;56.12;102061.81;5035684;28;20028;-71
2022/01/31 01:02:43;;;;;;;11.50;4.30;;;;;;;15.73;55.22;102079.72;5035885;28;20025;-71
2022/01/31 01:05:09;;;;;;;9.52;4.30;;;;;;;15.32;56.40;102048.69;5036020;28;20030;-71
2022/01/31 01:07:35;;;;;;;10.77;4.82;;;;;;;15.89;54.53;102058.69;5032330;28;20036;-71
2022/01/31 01:10:02;;;;;;;9.80;4.30;;;;;;;16.01;54.28;102069.50;5034792;28;20148;-71
2022/01/31 01:12:28;;;;;;;8.38;4.40;;;;;;;16.16;53.68;102059.34;5034825;28;20068;-71
2022/01/31 01:14:54;;;;;;;7.07;4.15;;;;;;;16.17;53.41;102063.75;5035626;28;20459;-71
2022/01/31 01:17:21;;;;;;;12.32;4.88;;;;;;;16.18;53.01;102073.59;5031622;28;20103;-71
2022/01/31 01:19:47;;;;;;;10.13;4.68;;;;;;;16.06;53.70;102068.19;5031622;28;20041;-71
2022/01/31 01:22:13;;;;;;;7.93;4.57;;;;;;;16.06;54.40;102068.19;5041855;28;20037;-71
2022/01/31 01:24:39;;;;;;;9.32;4.68;;;;;;;16.02;54.15;102066.69;5044833;28;20095;-71
2022/01/31 01:27:08;;;;;;;9.90;4.68;;;;;;;15.95;54.82;102060.06;5047280;28;20033;-72
2022/01/31 01:29:34;;;;;;;9.73;4.90;;;;;;;15.85;54.08;102054.53;5043123;28;20430;-71
2022/01/31 01:32:01;;;;;;;9.77;4.60;;;;;;;15.70;54.53;102051.16;5046172;28;20025;-70
2022/01/31 01:34:31;;;;;;;13.13;4.78;;;;;;;15.67;54.52;102070.28;5055428;28;20013;-70
2022/01/31 01:36:58;;;;;;;7.63;4.70;;;;;;;15.54;55.44;102075.75;5054584;28;20009;-71
2022/01/31 01:39:26;;;;;;;9.68;4.57;;;;;;;15.46;55.91;102074.63;5048428;28;20037;-72
2022/01/31 01:44:45;;;;;;;9.10;4.70;;;;;;;13.65;70.36;102189.38;5058121;28;20907;-73
2022/01/31 01:47:16;;;;;;;7.70;4.43;;;;;;;13.50;70.64;102196.22;5041955;28;20041;-69
2022/01/31 01:49:43;;;;;;;10.15;4.93;;;;;;;13.59;67.74;102196.25;5013111;28;20053;-70
2022/01/31 01:52:10;;;;;;;6.65;4.93;;;;;;;13.62;67.06;102190.88;5013822;28;20040;-69
2022/01/31 01:54:36;;;;;;;9.40;4.22;;;;;;;13.59;66.65;102191.50;5012497;28;20033;-69
2022/01/31 01:57:03;;;;;;;10.98;5.15;;;;;;;13.60;66.63;102204.25;5017220;28;20157;-69
2022/01/31 01:59:34;;;;;;;9.18;5.22;;;;;;;13.50;66.50;102210.09;5009273;28;20050;-72
2022/01/31 02:02:04;;;;;;;9.55;5.47;;;;;;;13.48;66.55;102213.16;5011905;28;20145;-70
2022/01/31 02:04:31;;;;;;;11.85;5.50;;;;;;;13.28;66.77;102210.97;5012536;28;20471;-71
2022/01/31 02:06:57;;;;;;;7.45;4.78;;;;;;;13.28;67.01;102211.78;5018330;28;20136;-69
2022/01/31 02:09:27;;;;;;;7.78;4.63;;;;;;;13.24;66.81;102207.19;5014760;28;20524;-69
2022/01/31 02:11:57;;;;;;;11.25;4.85;;;;;;;13.17;66.65;102199.34;5017620;28;20120;-68
2022/01/31 02:14:24;;;;;;;7.30;4.80;;;;;;;13.20;66.45;102209.81;5014196;28;20030;-69
2022/01/31 02:16:53;;;;;;;8.07;4.45;;;;;;;13.15;66.56;102212.72;5014420;28;20040;-69
2022/01/31 02:19:22;;;;;;;5.53;3.53;;;;;;;13.08;66.40;102221.47;5017220;28;20076;-69
2022/01/31 02:21:53;;;;;;;4.80;4.00;;;;;;;13.08;66.17;102226.22;5004788;28;20381;-69
2022/01/31 02:24:20;;;;;;;8.18;4.38;;;;;;;12.99;66.34;102226.16;5012149;28;20084;-70
2022/01/31 02:26:46;;;;;;;5.85;4.30;;;;;;;12.95;66.14;102225.16;5010922;28;20089;-69
2022/01/31 02:29:13;;;;;;;7.63;4.03;;;;;;;12.89;66.14;102234.75;5012652;28;20033;-69
2022/01/31 02:31:45;;;;;;;5.32;3.83;;;;;;;12.78;66.13;102239.75;5015927;28;20065;-69
2022/01/31 02:34:11;;;;;;;12.52;4.13;;;;;;;12.69;67.02;102227.78;5017366;28;20034;-69
2022/01/31 02:36:38;;;;;;;11.82;4.25;;;;;;;12.62;66.68;102242.09;5016057;28;20026;-69
2022/01/31 02:39:06;;;;;;;11.20;4.07;;;;;;;12.61;66.93;102236.88;5018027;28;20033;-69
2022/01/31 02:41:38;;;;;;;7.03;4.30;;;;;;;12.49;67.31;102240.22;5020350;28;20112;-69
2022/01/31 02:44:09;;;;;;;5.88;4.18;;;;;;;12.39;67.53;102235.75;5019192;28;20045;-69
2022/01/31 02:46:35;;;;;;;8.93;4.50;;;;;;;12.34;67.56;102251.66;5018425;28;20030;-69
2022/01/31 02:49:02;;;;;;;6.32;3.95;;;;;;;12.33;67.41;102247.25;5016540;28;20022;-69
2022/01/31 02:51:31;;;;;;;6.97;3.95;;;;;;;12.27;67.44;102255.69;5015904;28;20028;-69
2022/01/31 02:53:57;;;;;;;6.55;4.32;;;;;;;12.17;67.36;102257.88;5014946;28;20335;-69
2022/01/31 02:56:23;;;;;;;9.60;5.80;;;;;;;12.22;67.73;102266.88;5004922;28;20030;-69
2022/01/31 02:58:49;;;;;;;9.20;5.60;;;;;;;12.13;68.01;102270.69;5003818;28;20084;-68
2022/01/31 03:01:16;;;;;;;7.20;4.57;;;;;;;12.05;68.16;102275.03;4998967;28;20061;-68
2022/01/31 03:03:42;;;;;;;12.40;5.53;;;;;;;12.08;68.19;102272.47;5003525;28;20048;-68
2022/01/31 03:06:08;;;;;;;7.60;4.95;;;;;;;12.06;68.49;102265.56;5004596;28;20026;-68
2022/01/31 03:08:35;;;;;;;7.70;4.70;;;;;;;11.94;68.86;102268.06;5005861;28;20022;-68
2022/01/31 03:11:01;;;;;;;5.45;4.32;;;;;;;12.05;68.65;102272.25;5005297;28;20030;-68
2022/01/31 03:13:27;;;;;;;13.48;5.60;;;;;;;11.93;68.97;102270.00;5006009;28;20456;-69
2022/01/31 03:15:53;;;;;;;10.63;5.57;;;;;;;11.84;68.99;102275.44;5003681;28;20030;-69
2022/01/31 03:18:19;;;;;;;10.25;5.10;;;;;;;11.81;69.21;102273.28;5001663;28;20334;-69
2022/01/31 03:20:45;;;;;;;5.90;4.03;;;;;;;11.82;69.18;102279.63;5003730;28;20444;-69
2022/01/31 03:23:13;;;;;;;9.60;4.97;;;;;;;11.78;68.84;102281.38;5001973;28;20356;-69
2022/01/31 03:25:39;;;;;;;6.47;4.47;;;;;;;11.84;68.39;102286.50;4999005;28;20036;-69
2022/01/31 03:28:05;;;;;;;7.55;5.05;;;;;;;11.79;68.67;102283.03;5005332;28;20444;-69
2022/01/31 03:30:31;;;;;;;6.82;4.70;;;;;;;11.83;68.73;102284.84;5001719;28;20061;-69
2022/01/31 03:32:57;;;;;;;8.93;5.13;;;;;;;11.69;69.76;102287.63;5000509;28;20034;-69
2022/01/31 03:35:23;;;;;;;15.13;4.97;;;;;;;11.62;70.38;102308.53;5000070;28;20026;-69
2022/01/31 03:37:50;;;;;;;11.02;6.35;;;;;;;11.66;70.35;102295.72;5003575;28;20101;-69
2022/01/31 03:40:16;;;;;;;13.45;5.63;;;;;;;11.71;70.52;102304.75;5003011;28;21060;-69
2022/01/31 03:42:42;;;;;;;15.13;5.03;;;;;;;11.61;70.88;102293.91;5002238;28;20349;-69
2022/01/31 03:45:11;;;;;;;14.20;5.20;;;;;;;11.57;70.46;102295.59;5003463;28;20049;-69
2022/01/31 03:47:44;;;;;;;7.68;5.20;;;;;;;11.58;70.53;102301.97;5002935;28;20348;-69
2022/01/31 03:50:12;;;;;;;8.13;4.38;;;;;;;11.59;70.67;102303.59;5003394;28;20057;-69
2022/01/31 03:52:38;;;;;;;9.15;5.13;;;;;;;11.67;70.10;102302.91;5003234;28;20025;-69
2022/01/31 03:55:06;;;;;;;10.02;4.95;;;;;;;11.60;70.34;102302.50;5002780;28;20053;-69
2022/01/31 03:57:33;;;;;;;13.00;5.35;;;;;;;11.56;70.65;102307.00;5002803;28;20025;-69
2022/01/31 04:00:00;;;;;;;10.52;5.57;;;;;;;11.62;70.30;102303.81;4997348;28;20034;-69
2022/01/31 04:02:26;;;;;;;7.57;4.43;;;;;;;11.56;70.30;102302.28;5004059;28;20057;-69
2022/01/31 04:04:52;;;;;;;6.40;4.03;;;;;;;11.56;69.98;102305.06;5002037;28;20026;-69
2022/01/31 04:07:19;;;;;;;6.30;4.47;;;;;;;11.50;70.17;102306.28;4997940;28;20117;-69
2022/01/31 04:09:45;;;;;;;8.57;5.13;;;;;;;11.51;70.06;102316.22;5001604;28;20440;-69
2022/01/31 04:12:11;;;;;;;12.18;5.18;;;;;;;11.55;69.94;102310.88;5002130;28;20117;-69
2022/01/31 04:14:37;;;;;;;8.85;4.75;;;;;;;11.42;70.41;102327.16;4997406;28;20094;-69
2022/01/31 04:17:07;;;;;;;12.00;5.57;;;;;;;11.38;70.64;102328.88;5003761;28;20064;-69
2022/01/31 04:19:34;;;;;;;9.95;4.97;;;;;;;11.45;70.48;102322.97;5002739;28;20034;-69
2022/01/31 04:22:00;;;;;;;11.18;4.60;;;;;;;11.39;70.33;102318.66;5004223;28;20042;-69
2022/01/31 04:24:32;;;;;;;8.60;4.70;;;;;;;11.48;70.34;102314.88;5001583;28;20040;-69
2022/01/31 04:27:05;;;;;;;8.45;4.63;;;;;;;11.50;70.18;102303.53;5004486;28;20044;-69
2022/01/31 04:29:38;;;;;;;8.20;5.45;;;;;;;11.49;70.12;102299.09;5003462;28;20095;-69
2022/01/31 04:32:05;;;;;;;17.33;8.77;;;;;;;11.40;69.91;102299.00;5004833;28;20033;-69
2022/01/31 04:34:32;;;;;;;15.85;7.63;;;;;;;11.42;69.74;102318.88;5001665;28;20057;-69
2022/01/31 04:36:59;;;;;;;9.23;5.40;;;;;;;11.36;69.24;102322.03;5004183;28;20018;-69
2022/01/31 04:39:27;;;;;;;7.65;4.72;;;;;;;11.30;69.38;102324.88;5004451;28;20107;-69
2022/01/31 04:41:53;;;;;;;7.72;4.25;;;;;;;11.28;69.77;102318.84;5002779;28;20025;-69
2022/01/31 04:44:19;;;;;;;9.10;4.18;;;;;;;11.28;69.89;102316.06;5002255;28;20038;-73
2022/01/31 04:46:49;;;;;;;8.48;4.20;;;;;;;11.26;69.56;102320.28;5002228;28;20030;-69
2022/01/31 04:49:20;;;;;;;8.48;4.00;;;;;;;11.21;69.54;102310.16;5004046;28;20033;-69
2022/01/31 04:51:47;;;;;;;7.55;4.43;;;;;;;11.28;69.17;102310.53;5003663;28;20501;-69
2022/01/31 04:54:13;;;;;;;7.68;3.65;;;;;;;11.11;69.69;102319.41;5002335;28;20037;-69
2022/01/31 04:56:41;;;;;;;7.78;3.67;;;;;;;11.14;69.68;102321.56;4998435;28;20105;-69
2022/01/31 04:59:08;;;;;;;8.90;3.63;;;;;;;11.03;69.64;102333.94;5000065;28;20030;-69
2022/01/31 05:01:35;;;;;;;5.82;3.42;;;;;;;11.01;69.41;102346.41;5000927;28;20027;-68
2022/01/31 05:04:01;;;;;;;8.05;3.83;;;;;;;11.00;69.69;102345.56;5004201;28;20026;-69
2022/01/31 05:06:33;;;;;;;8.68;4.38;;;;;;;11.04;70.06;102349.41;5001638;28;20476;-69
2022/01/31 05:09:00;;;;;;;5.82;3.47;;;;;;;10.92;69.95;102352.63;5002439;28;20029;-68
2022/01/31 05:11:26;;;;;;;8.27;4.47;;;;;;;11.10;70.06;102348.19;4998841;28;20030;-69
2022/01/31 05:13:52;;;;;;;6.95;4.10;;;;;;;10.86;71.05;102345.53;5002642;28;20017;-69
2022/01/31 05:16:18;;;;;;;12.60;4.65;;;;;;;10.96;71.13;102355.59;4999942;28;20033;-69
2022/01/31 05:18:45;;;;;;;13.00;4.15;;;;;;;10.84;70.99;102350.53;4998651;28;20030;-69
2022/01/31 05:21:11;;;;;;;11.05;5.68;;;;;;;10.79;70.88;102342.31;5003309;28;20034;-68
2022/01/31 05:23:38;;;;;;;8.07;4.38;;;;;;;10.84;70.60;102352.50;5002081;28;20030;-69
2022/01/31 05:26:04;;;;;;;8.18;4.57;;;;;;;10.82;70.03;102347.25;4998340;28;20485;-73
2022/01/31 05:28:30;;;;;;;11.80;4.15;;;;;;;10.81;70.13;102348.38;5003397;28;20029;-72
2022/01/31 05:30:57;;;;;;;11.02;4.13;;;;;;;10.78;70.17;102346.22;5003637;28;20036;-72
2022/01/31 05:33:23;;;;;;;8.93;4.10;;;;;;;10.72;69.88;102342.72;5001299;28;20133;-73
2022/01/31 05:35:49;;;;;;;8.63;3.75;;;;;;;10.68;69.77;102343.59;5004616;28;20026;-73
2022/01/31 05:38:16;;;;;;;5.50;3.65;;;;;;;10.81;70.17;102345.59;5002252;28;20025;-73
2022/01/31 05:40:42;;;;;;;8.18;3.92;;;;;;;10.73;70.98;102340.78;5003087;28;20411;-73
2022/01/31 05:43:08;;;;;;;10.63;4.53;;;;;;;10.87;70.84;102347.19;5002088;28;20468;-72
2022/01/31 05:45:34;;;;;;;6.97;4.97;;;;;;;10.60;71.14;102347.88;5003286;28;20037;-71
2022/01/31 05:48:00;;;;;;;6.13;4.38;;;;;;;10.59;70.93;102349.00;5002288;28;20030;-71
2022/01/31 05:50:27;;;;;;;9.45;4.35;;;;;;;10.57;71.02;102345.72;5002193;28;20037;-71
2022/01/31 05:52:53;;;;;;;6.35;3.63;;;;;;;10.60;70.40;102347.88;5002331;28;20112;-71
2022/01/31 05:55:19;;;;;;;7.50;3.47;;;;;;;10.55;70.58;102357.06;5002662;28;20358;-71
2022/01/31 05:57:45;;;;;;;7.78;3.95;;;;;;;10.54;70.16;102357.34;5002618;28;20449;-71
2022/01/31 06:00:12;;;;;;;6.53;3.22;;;;;;;10.54;70.29;102354.59;5000343;28;20088;-71
2022/01/31 06:02:39;;;;;;;5.20;3.08;;;;;;;10.51;70.46;102353.25;5002142;28;20045;-71
2022/01/31 06:05:05;;;;;;;9.40;3.85;;;;;;;10.50;70.73;102359.06;5002562;28;20341;-71
2022/01/31 06:07:32;;;;;;;8.73;3.40;;;;;;;10.52;70.80;102370.63;5003729;28;20033;-71
2022/01/31 06:09:59;;;;;;;12.85;4.75;;;;;;;10.55;70.72;102362.59;5003095;28;20457;-71
2022/01/31 06:12:25;;;;;;;8.68;4.05;;;;;;;10.46;71.12;102363.56;5002835;28;20026;-71
2022/01/31 06:14:52;;;;;;;10.80;4.32;;;;;;;10.48;71.12;102358.56;5002827;28;20031;-71
2022/01/31 06:17:18;;;;;;;10.32;3.88;;;;;;;10.50;71.33;102372.88;5002110;28;20037;-71
2022/01/31 06:19:44;;;;;;;9.48;3.92;;;;;;;10.51;70.71;102355.22;5001163;28;20077;-71
2022/01/31 06:22:10;;;;;;;7.85;3.85;;;;;;;10.47;70.84;102365.19;5002087;28;20097;-71
2022/01/31 06:24:36;;;;;;;12.98;5.60;;;;;;;10.48;70.84;102366.84;4998330;28;20030;-71
2022/01/31 06:27:04;;;;;;;16.20;4.13;;;;;;;10.46;71.17;102369.88;5003064;28;20038;-69
2022/01/31 06:29:30;;;;;;;9.07;3.83;;;;;;;10.51;70.93;102363.50;5004158;28;20940;-68
2022/01/31 06:31:56;;;;;;;13.43;4.55;;;;;;;10.47;70.95;102366.03;5006485;28;20378;-68
2022/01/31 06:34:22;;;;;;;9.88;4.43;;;;;;;10.48;71.00;102362.13;5006878;28;20023;-69
2022/01/31 06:36:49;;;;;;;7.45;3.88;;;;;;;10.43;71.15;102359.44;5005291;28;20072;-68
2022/01/31 06:39:15;;;;;;;9.90;4.05;;;;;;;10.47;71.18;102352.22;5006546;28;20121;-68
2022/01/31 06:41:41;;;;;;;10.27;3.95;;;;;;;10.48;71.13;102353.03;5005994;28;20030;-68
2022/01/31 06:44:07;;;;;;;8.00;3.80;;;;;;;10.48;70.44;102353.03;5005041;28;20099;-68
2022/01/31 06:46:33;;;;;;;6.93;3.90;;;;;;;10.46;70.81;102360.78;5006525;28;20109;-68
2022/01/31 06:48:59;;;;;;;9.77;4.18;;;;;;;10.33;70.92;102354.88;5005229;28;20030;-68
2022/01/31 06:51:26;;;;;;;8.45;3.55;;;;;;;10.43;71.29;102364.94;5005019;28;20038;-68
2022/01/31 06:53:54;;;;;;;11.13;3.55;;;;;;;10.34;71.53;102362.06;5004002;28;20092;-68
2022/01/31 06:56:28;;;;;;;8.88;3.88;;;;;;;10.40;71.36;102367.50;5004749;28;20153;-68
2022/01/31 06:58:54;;;;;;;13.60;4.82;;;;;;;10.37;71.66;102366.16;5005598;28;20026;-68
2022/01/31 07:01:24;;;;;;;8.13;3.30;;;;;;;10.33;71.59;102360.41;5005751;28;20060;-69
2022/01/31 07:03:53;;;;;;;6.43;3.28;;;;;;;10.36;71.82;102372.81;5005497;28;20089;-69
2022/01/31 07:06:19;;;;;;;8.70;3.58;;;;;;;10.37;71.96;102371.66;5005702;28;20124;-70
2022/01/31 07:08:46;;;;;;;6.97;3.38;;;;;;;10.40;71.86;102376.59;5004390;28;20039;-70
2022/01/31 07:11:19;;;;;;;7.78;4.47;;;;;;;10.34;71.85;102372.28;5005750;28;20064;-69
2022/01/31 07:13:48;;;;;;;14.43;3.80;;;;;;;10.52;71.73;102373.41;5005542;28;20053;-69
2022/01/31 07:16:14;;;;;;;4.90;3.28;;;;;;;10.39;71.69;102376.91;5005832;28;20034;-69
2022/01/31 07:18:41;;;;;;;8.98;3.38;;;;;;;10.49;71.53;102372.06;5005889;28;20471;-69
2022/01/31 07:21:12;;;;;;;10.68;3.45;;;;;;;10.41;71.75;102380.19;5004350;28;20147;-69
2022/01/31 07:23:52;;;;;;;8.75;3.40;;;;;;;10.38;71.59;102389.03;5004817;28;20452;-69
2022/01/31 07:26:18;;;;;;;12.10;3.72;;;;;;;10.42;71.77;102382.66;5004706;28;20029;-72
2022/01/31 07:28:44;;;;;;;7.97;3.40;;;;;;;10.43;71.92;102369.66;5003546;28;20026;-71
2022/01/31 07:31:11;;;;;;;15.25;4.18;;;;;;;10.48;72.15;102373.16;5004625;28;20033;-72
2022/01/31 07:33:41;;;;;;;5.32;2.88;;;;;;;10.49;72.23;102383.09;5005820;28;20033;-71
2022/01/31 07:36:07;;;;;;;8.77;3.92;;;;;;;10.56;72.23;102371.69;5005354;28;20374;-72
2022/01/31 07:38:33;;;;;;;7.55;3.60;;;;;;;10.59;72.11;102368.34;5005367;28;20361;-72
2022/01/31 07:40:59;;;;;;;8.35;2.78;;;;;;;10.70;71.76;102371.78;5004625;28;20044;-72
2022/01/31 07:43:25;;;;;;;11.70;3.60;;;;;;;10.62;71.73;102364.94;5004552;28;20040;-73
2022/01/31 07:45:52;;;;;;;9.48;3.03;;;;;;;10.70;71.61;102371.78;5005380;28;20420;-72
2022/01/31 07:48:18;;;;;;;8.50;3.13;;;;;;;10.60;71.57;102355.34;5004253;28;20030;-72
2022/01/31 07:50:44;;;;;;;11.10;2.97;;;;;;;10.64;71.36;102354.47;5005695;28;20053;-72
2022/01/31 07:53:10;;;;;;;5.63;2.60;;;;;;;10.55;71.24;102354.31;5003055;28;20025;-72
2022/01/31 07:55:36;;;;;;;7.32;2.67;;;;;;;10.57;71.10;102351.25;5004240;28;20037;-72
2022/01/31 07:58:03;;;;;;;4.05;2.40;;;;;;;10.59;71.14;102351.75;5004802;28;20092;-72
2022/01/31 08:00:29;;;;;;;5.65;2.20;;;;;;;10.53;71.19;102356.53;5004807;28;20117;-72
2022/01/31 08:02:56;;;;;;;4.18;2.58;;;;;;;10.52;70.92;102365.13;5004028;28;20042;-72
2022/01/31 08:05:22;;;;;;;4.70;2.50;;;;;;;10.53;70.95;102353.78;5004443;28;20491;-72
2022/01/31 08:07:49;;;;;;;5.20;2.05;;;;;;;10.51;70.91;102344.16;5004440;28;20030;-72
2022/01/31 08:10:16;;;;;;;6.55;2.47;;;;;;;10.48;70.90;102342.00;5002276;28;20041;-73
2022/01/31 08:12:44;;;;;;;6.78;2.22;;;;;;;10.40;70.76;102335.19;5004565;28;20018;-72
2022/01/31 08:15:19;;;;;;;4.30;2.40;;;;;;;10.40;70.43;102335.19;5005868;28;20092;-73
2022/01/31 08:17:45;;;;;;;10.40;2.65;;;;;;;10.35;70.59;102326.97;5001864;28;20030;-73
2022/01/31 08:20:11;;;;;;;6.32;2.45;;;;;;;10.38;70.70;102325.56;5005255;28;20030;-73
2022/01/31 08:22:38;;;;;;;5.82;2.70;;;;;;;10.34;70.79;102319.84;5002072;28;20095;-73
2022/01/31 08:25:05;;;;;;;5.75;2.28;;;;;;;10.29;70.40;102326.19;5001623;28;20033;-73
2022/01/31 08:27:32;;;;;;;6.05;3.08;;;;;;;10.26;70.35;102326.81;5004374;28;20022;-68
2022/01/31 08:30:07;;;;;;;4.05;3.00;;;;;;;10.22;70.49;102327.69;5003969;28;20021;-68
2022/01/31 08:32:43;;;;;;;6.35;2.55;;;;;;;10.18;70.28;102335.72;5004911;28;20019;-68
2022/01/31 08:37:54;;;;;;;7.80;3.22;;;;;;;10.09;70.39;102327.31;5000325;28;20038;-68
2022/01/31 08:40:21;;;;;;;7.53;2.80;;;;;;;10.06;70.58;102330.66;5004233;28;20371;-68
2022/01/31 08:42:47;;;;;;;5.30;2.55;;;;;;;10.07;70.03;102335.06;5001821;28;20026;-68
2022/01/31 08:45:13;;;;;;;4.50;2.38;;;;;;;10.04;70.30;102332.88;5003881;28;20036;-68
2022/01/31 08:47:41;;;;;;;5.60;2.60;;;;;;;10.01;70.43;102327.13;5004419;28;20034;-68
2022/01/31 08:50:10;;;;;;;4.28;2.50;;;;;;;9.98;70.70;102331.31;5002713;28;20167;-68
2022/01/31 08:52:37;;;;;;;5.72;2.63;;;;;;;9.88;70.62;102317.63;5002209;28;20444;-68
2022/01/31 08:55:03;;;;;;;4.25;2.25;;;;;;;9.86;70.79;102319.88;5003300;28;20030;-68
2022/01/31 08:57:29;;;;;;;4.13;2.10;;;;;;;9.88;70.41;102320.38;5003457;28;20104;-68
2022/01/31 08:59:56;;;;;;;7.07;2.53;;;;;;;9.87;70.54;102321.53;5003520;28;20030;-68
2022/01/31 09:02:36;;;;;;;5.15;2.00;;;;;;;9.83;70.76;102312.19;5003787;28;20041;-68
2022/01/31 09:05:03;;;;;;;6.28;2.63;;;;;;;9.79;70.75;102323.00;5004317;28;20033;-68
2022/01/31 09:07:30;;;;;;;6.53;2.58;;;;;;;9.75;70.90;102325.53;5002891;28;20030;-68
2022/01/31 09:09:59;;;;;;;6.38;2.45;;;;;;;9.78;70.84;102322.16;5003562;28;20032;-68
2022/01/31 09:12:29;;;;;;;5.53;2.17;;;;;;;9.74;71.17;102329.38;5004012;28;20117;-68
2022/01/31 09:14:55;;;;;;;7.15;2.60;;;;;;;9.72;71.24;102322.53;5002628;28;20037;-68
2022/01/31 09:17:22;;;;;;;4.40;2.28;;;;;;;9.72;71.13;102315.06;5003994;28;20176;-68
2022/01/31 09:19:48;;;;;;;7.28;2.35;;;;;;;9.74;70.74;102310.06;5002819;28;20027;-68
2022/01/31 09:22:14;;;;;;;7.18;2.58;;;;;;;9.75;71.18;102299.84;5000494;28;20038;-68
2022/01/31 09:24:41;;;;;;;8.35;2.97;;;;;;;9.69;71.16;102288.06;5003118;28;20365;-68
2022/01/31 09:27:10;;;;;;;6.10;2.30;;;;;;;9.66;70.99;102280.41;5003124;28;20037;-73
2022/01/31 09:29:37;;;;;;;6.97;2.17;;;;;;;9.70;70.53;102288.91;5003549;28;20026;-73
2022/01/31 09:32:04;;;;;;;7.25;2.50;;;;;;;9.61;70.60;102285.97;5002657;28;20033;-73
2022/01/31 09:34:32;;;;;;;4.07;2.08;;;;;;;9.62;70.71;102287.63;5003312;28;20029;-73
2022/01/31 09:36:59;;;;;;;3.38;2.30;;;;;;;9.59;70.60;102288.19;5002000;28;20030;-73
2022/01/31 09:39:25;;;;;;;4.80;2.45;;;;;;;9.57;70.57;102294.00;5002026;28;20030;-73
2022/01/31 09:41:55;;;;;;;4.88;2.67;;;;;;;9.61;70.16;102301.69;5002328;28;20037;-73
2022/01/31 09:45:09;;;;;;;6.57;2.55;;;;;;;9.56;70.49;102300.66;5004643;28;20412;-74
2022/01/31 09:47:34;;;;;;;5.45;2.70;;;;;;;9.53;70.54;102309.50;4997088;28;20038;-74
2022/01/31 09:50:00;;;;;;;6.18;2.22;;;;;;;9.50;70.80;102301.78;5002585;28;20026;-73
2022/01/31 09:52:26;;;;;;;6.90;2.65;;;;;;;9.54;70.28;102296.53;5004293;28;20033;-73
2022/01/31 09:54:52;;;;;;;2.67;1.80;;;;;;;9.52;69.93;102296.00;5003217;28;20052;-73
2022/01/31 09:57:19;;;;;;;6.53;2.13;;;;;;;9.49;70.27;102297.41;5001269;28;20413;-68
2022/01/31 09:59:45;;;;;;;4.10;1.88;;;;;;;9.49;70.40;102297.41;5002907;28;20428;-68
2022/01/31 10:02:14;;;;;;;4.70;2.10;;;;;;;9.40;70.68;102288.13;5003500;28;20034;-68
2022/01/31 10:04:46;;;;;;;6.25;1.98;;;;;;;9.47;70.58;102291.38;5005150;28;20098;-68
2022/01/31 10:07:15;;;;;;;6.05;2.00;;;;;;;9.42;70.82;102280.41;5005929;28;20034;-68
2022/01/31 10:09:46;;;;;;;6.38;2.15;;;;;;;9.46;70.62;102283.38;5005852;28;20037;-68
2022/01/31 10:16:25;;;;;;;5.47;2.13;;;;;;;9.43;70.42;102279.28;5004292;28;20117;-68
2022/01/31 10:18:02;;;;;;;5.47;1.95;;;;;;;9.35;70.71;102277.16;5007410;28;20036;-68
2022/01/31 10:20:34;;;;;;;4.75;1.88;;;;;;;9.37;71.00;102283.19;5006380;28;20147;-68
2022/01/31 10:23:08;;;;;;;5.53;2.25;;;;;;;9.38;71.19;102277.41;5006608;28;20038;-68
2022/01/31 10:25:34;;;;;;;6.63;2.47;;;;;;;9.40;70.89;102274.34;5006422;28;20041;-68
2022/01/31 10:28:01;;;;;;;5.05;2.65;;;;;;;9.43;70.93;102278.44;5005838;28;20041;-69
2022/01/31 10:30:29;;;;;;;6.03;2.20;;;;;;;9.43;70.74;102275.69;5005887;28;20149;-68
2022/01/31 10:32:58;;;;;;;4.63;2.10;;;;;;;9.45;71.01;102288.09;5006612;28;20021;-68
2022/01/31 10:35:31;;;;;;;5.72;2.88;;;;;;;9.47;70.94;102276.78;5006318;28;20026;-68
2022/01/31 10:38:03;;;;;;;7.32;3.08;;;;;;;9.49;70.88;102285.56;5000805;28;20365;-68
2022/01/31 10:46:31;;;;;;;3.35;2.13;;;;;;;9.43;71.15;102292.22;5006215;28;19928;-69
2022/01/31 10:51:57;;;;;;;8.00;2.42;;;;;;;9.48;71.30;102275.66;5007132;28;20120;-68
2022/01/31 10:57:05;;;;;;;5.95;3.05;;;;;;;9.49;70.71;102285.56;5004600;28;20049;-73
2022/01/31 10:59:38;;;;;;;5.78;2.30;;;;;;;9.53;70.45;102294.91;5006194;28;20041;-73
2022/01/31 11:02:07;;;;;;;5.40;2.13;;;;;;;9.49;70.40;102293.84;5003940;28;20357;-73
2022/01/31 11:04:41;;;;;;;5.57;2.70;;;;;;;9.52;70.45;102284.97;5002992;28;20037;-73
2022/01/31 11:07:10;;;;;;;5.50;2.58;;;;;;;9.49;70.34;102282.81;5003828;28;20036;-73
2022/01/31 11:09:39;;;;;;;4.43;2.85;;;;;;;9.49;70.39;102283.63;5003960;28;20507;-73
2022/01/31 11:12:07;;;;;;;8.15;3.10;;;;;;;9.52;70.48;102288.56;5004755;28;20040;-73
2022/01/31 11:14:45;;;;;;;5.28;2.53;;;;;;;9.49;70.28;102283.63;5005291;28;20101;-73
2022/01/31 11:17:17;;;;;;;9.30;2.88;;;;;;;9.46;70.31;102278.69;5006524;28;20030;-73
2022/01/31 11:19:55;;;;;;;5.35;2.45;;;;;;;9.46;70.35;102280.63;5006471;28;20041;-73
2022/01/31 11:22:31;;;;;;;3.90;2.25;;;;;;;9.38;70.28;102279.34;5002776;28;20101;-73
2022/01/31 11:25:03;;;;;;;5.88;2.83;;;;;;;9.36;70.05;102276.88;5001995;28;20504;-73
2022/01/31 11:27:30;;;;;;;3.15;2.20;;;;;;;9.33;70.03;102280.22;5007057;28;20271;-74
2022/01/31 11:29:58;;;;;;;5.75;2.05;;;;;;;9.31;70.51;102278.88;5004960;28;20044;-73
2022/01/31 11:32:25;;;;;;;5.93;2.67;;;;;;;9.31;70.07;102287.94;5007675;28;20033;-74
2022/01/31 11:34:53;;;;;;;5.15;2.50;;;;;;;9.33;70.28;102284.91;5001091;28;20416;-73
2022/01/31 11:37:21;;;;;;;7.25;2.65;;;;;;;9.33;70.02;102285.75;5000197;28;20034;-73
2022/01/31 11:39:54;;;;;;;8.95;2.47;;;;;;;9.36;70.11;102276.06;5005928;28;20037;-74
2022/01/31 11:42:20;;;;;;;5.97;2.95;;;;;;;9.36;70.18;102271.34;5022621;28;20079;-74
2022/01/31 11:44:51;;;;;;;4.13;2.30;;;;;;;9.33;70.02;102266.44;5003987;28;20046;-75
2022/01/31 11:47:25;;;;;;;4.53;2.75;;;;;;;9.34;70.04;102261.75;5002280;28;20092;-73
2022/01/31 11:50:06;;;;;;;4.55;2.60;;;;;;;9.30;70.23;102246.91;5004409;28;20037;-73